sensor_id;sensor_type;location;lat;lon;timestamp;P1;durP1;ratioP1;P2;durP2;ratioP2
8435;SDS011;4255;48.730;9.156;2022-12-29T00:02:21;4.63;;;2.83;;
8435;SDS011;4255;48.730;9.156;2022-12-29T00:04:46;3.33;;;2.90;;
8435;SDS011;4255;48.730;9.156;2022-12-29T00:07:15;3.85;;;2.53;;
8435;SDS011;4255;48.730;9.156;2022-12-29T00:09:40;2.80;;;2.60;;
8435;SDS011;4255;48.730;9.156;2022-12-29T00:12:06;3.70;;;2.70;;
8435;SDS011;4255;48.730;9.156;2022-12-29T00:14:31;2.80;;;2.50;;
8435;SDS011;4255;48.730;9.156;2022-12-29T00:17:15;2.42;;;2.33;;
8435;SDS011;4255;48.730;9.156;2022-12-29T00:19:41;3.00;;;2.80;;
8435;SDS011;4255;48.730;9.156;2022-12-29T00:22:25;2.65;;;2.45;;
8435;SDS011;4255;48.730;9.156;2022-12-29T00:25:10;4.90;;;3.00;;
8435;SDS011;4255;48.730;9.156;2022-12-29T00:27:56;2.83;;;2.55;;
8435;SDS011;4255;48.730;9.156;2022-12-29T00:30:40;3.10;;;2.80;;
8435;SDS011;4255;48.730;9.156;2022-12-29T00:33:31;2.83;;;2.40;;
8435;SDS011;4255;48.730;9.156;2022-12-29T00:36:27;2.97;;;2.50;;
8435;SDS011;4255;48.730;9.156;2022-12-29T00:39:00;2.92;;;2.60;;
8435;SDS011;4255;48.730;9.156;2022-12-29T00:41:50;6.75;;;3.58;;
8435;SDS011;4255;48.730;9.156;2022-12-29T00:44:35;5.95;;;2.70;;
8435;SDS011;4255;48.730;9.156;2022-12-29T00:47:00;3.20;;;2.63;;
8435;SDS011;4255;48.730;9.156;2022-12-29T00:49:30;2.65;;;2.42;;
8435;SDS011;4255;48.730;9.156;2022-12-29T00:51:56;2.65;;;2.15;;
8435;SDS011;4255;48.730;9.156;2022-12-29T00:54:28;2.30;;;2.17;;
8435;SDS011;4255;48.730;9.156;2022-12-29T00:56:56;2.92;;;2.45;;
8435;SDS011;4255;48.730;9.156;2022-12-29T00:59:21;2.35;;;2.22;;
8435;SDS011;4255;48.730;9.156;2022-12-29T01:01:49;2.40;;;2.22;;
8435;SDS011;4255;48.730;9.156;2022-12-29T01:04:15;3.92;;;2.28;;
8435;SDS011;4255;48.730;9.156;2022-12-29T01:06:41;2.43;;;2.17;;
8435;SDS011;4255;48.730;9.156;2022-12-29T01:09:07;2.87;;;2.37;;
8435;SDS011;4255;48.730;9.156;2022-12-29T01:11:52;2.40;;;2.20;;
8435;SDS011;4255;48.730;9.156;2022-12-29T01:14:18;3.40;;;2.63;;
8435;SDS011;4255;48.730;9.156;2022-12-29T01:16:44;3.42;;;2.20;;
8435;SDS011;4255;48.730;9.156;2022-12-29T01:19:10;4.10;;;2.33;;
8435;SDS011;4255;48.730;9.156;2022-12-29T01:21:36;3.00;;;2.30;;
8435;SDS011;4255;48.730;9.156;2022-12-29T01:24:01;2.77;;;2.67;;
8435;SDS011;4255;48.730;9.156;2022-12-29T01:26:27;3.37;;;2.30;;
8435;SDS011;4255;48.730;9.156;2022-12-29T01:28:53;4.70;;;2.17;;
8435;SDS011;4255;48.730;9.156;2022-12-29T01:31:18;2.30;;;2.20;;
8435;SDS011;4255;48.730;9.156;2022-12-29T01:33:44;3.57;;;2.50;;
8435;SDS011;4255;48.730;9.156;2022-12-29T01:36:11;2.90;;;2.60;;
8435;SDS011;4255;48.730;9.156;2022-12-29T01:38:39;2.40;;;2.10;;
8435;SDS011;4255;48.730;9.156;2022-12-29T01:41:06;3.85;;;2.35;;
8435;SDS011;4255;48.730;9.156;2022-12-29T01:46:04;2.10;;;2.00;;
8435;SDS011;4255;48.730;9.156;2022-12-29T01:48:43;2.80;;;2.45;;
8435;SDS011;4255;48.730;9.156;2022-12-29T01:51:10;5.57;;;2.88;;
8435;SDS011;4255;48.730;9.156;2022-12-29T01:53:36;3.50;;;2.33;;
8435;SDS011;4255;48.730;9.156;2022-12-29T01:56:02;3.03;;;2.10;;
8435;SDS011;4255;48.730;9.156;2022-12-29T01:58:32;4.47;;;2.38;;
8435;SDS011;4255;48.730;9.156;2022-12-29T02:01:04;2.92;;;2.70;;
8435;SDS011;4255;48.730;9.156;2022-12-29T02:03:31;2.30;;;2.10;;
8435;SDS011;4255;48.730;9.156;2022-12-29T02:08:33;3.30;;;3.00;;
8435;SDS011;4255;48.730;9.156;2022-12-29T02:11:00;2.67;;;2.47;;
8435;SDS011;4255;48.730;9.156;2022-12-29T02:13:26;5.28;;;2.20;;
8435;SDS011;4255;48.730;9.156;2022-12-29T02:16:09;2.80;;;2.55;;
8435;SDS011;4255;48.730;9.156;2022-12-29T02:19:02;6.18;;;2.28;;
8435;SDS011;4255;48.730;9.156;2022-12-29T02:27:34;5.50;;;2.40;;
8435;SDS011;4255;48.730;9.156;2022-12-29T02:32:52;3.58;;;2.13;;
8435;SDS011;4255;48.730;9.156;2022-12-29T02:38:20;2.83;;;2.38;;
8435;SDS011;4255;48.730;9.156;2022-12-29T02:41:07;7.38;;;2.40;;
8435;SDS011;4255;48.730;9.156;2022-12-29T02:43:56;2.53;;;2.15;;
8435;SDS011;4255;48.730;9.156;2022-12-29T02:46:28;2.47;;;2.28;;
8435;SDS011;4255;48.730;9.156;2022-12-29T02:51:52;1.85;;;1.75;;
8435;SDS011;4255;48.730;9.156;2022-12-29T02:54:25;2.75;;;2.20;;
8435;SDS011;4255;48.730;9.156;2022-12-29T02:59:48;4.15;;;2.00;;
8435;SDS011;4255;48.730;9.156;2022-12-29T03:02:27;2.80;;;2.47;;
8435;SDS011;4255;48.730;9.156;2022-12-29T03:10:53;5.05;;;2.65;;
8435;SDS011;4255;48.730;9.156;2022-12-29T03:13:36;3.50;;;2.15;;
8435;SDS011;4255;48.730;9.156;2022-12-29T03:19:21;6.10;;;2.15;;
8435;SDS011;4255;48.730;9.156;2022-12-29T03:21:56;1.92;;;1.83;;
8435;SDS011;4255;48.730;9.156;2022-12-29T03:24:45;1.83;;;1.73;;
8435;SDS011;4255;48.730;9.156;2022-12-29T03:27:16;2.20;;;2.05;;
8435;SDS011;4255;48.730;9.156;2022-12-29T03:29:47;2.85;;;1.95;;
8435;SDS011;4255;48.730;9.156;2022-12-29T03:32:19;2.30;;;2.20;;
8435;SDS011;4255;48.730;9.156;2022-12-29T03:34:48;5.72;;;2.03;;
8435;SDS011;4255;48.730;9.156;2022-12-29T03:37:17;2.75;;;2.05;;
8435;SDS011;4255;48.730;9.156;2022-12-29T03:39:45;2.10;;;2.00;;
8435;SDS011;4255;48.730;9.156;2022-12-29T03:42:15;2.00;;;1.90;;
8435;SDS011;4255;48.730;9.156;2022-12-29T03:44:44;2.05;;;1.73;;
8435;SDS011;4255;48.730;9.156;2022-12-29T03:47:11;1.90;;;1.77;;
8435;SDS011;4255;48.730;9.156;2022-12-29T03:49:38;6.30;;;1.92;;
8435;SDS011;4255;48.730;9.156;2022-12-29T03:52:04;2.55;;;2.05;;
8435;SDS011;4255;48.730;9.156;2022-12-29T03:54:30;1.93;;;1.80;;
8435;SDS011;4255;48.730;9.156;2022-12-29T03:56:56;4.38;;;2.50;;
8435;SDS011;4255;48.730;9.156;2022-12-29T03:59:22;2.30;;;1.90;;
8435;SDS011;4255;48.730;9.156;2022-12-29T04:01:47;2.30;;;2.10;;
8435;SDS011;4255;48.730;9.156;2022-12-29T04:04:13;3.13;;;2.50;;
8435;SDS011;4255;48.730;9.156;2022-12-29T04:06:39;2.30;;;1.83;;
8435;SDS011;4255;48.730;9.156;2022-12-29T04:09:04;2.50;;;2.30;;
8435;SDS011;4255;48.730;9.156;2022-12-29T04:11:30;2.30;;;2.10;;
8435;SDS011;4255;48.730;9.156;2022-12-29T04:13:56;5.17;;;2.40;;
8435;SDS011;4255;48.730;9.156;2022-12-29T04:16:21;1.70;;;1.60;;
8435;SDS011;4255;48.730;9.156;2022-12-29T04:18:47;2.70;;;1.90;;
8435;SDS011;4255;48.730;9.156;2022-12-29T04:21:13;2.47;;;2.37;;
8435;SDS011;4255;48.730;9.156;2022-12-29T04:23:38;2.50;;;2.00;;
8435;SDS011;4255;48.730;9.156;2022-12-29T04:26:05;3.92;;;2.25;;
8435;SDS011;4255;48.730;9.156;2022-12-29T04:28:32;3.75;;;2.00;;
8435;SDS011;4255;48.730;9.156;2022-12-29T04:30:58;2.75;;;2.10;;
8435;SDS011;4255;48.730;9.156;2022-12-29T04:33:24;1.92;;;1.80;;
8435;SDS011;4255;48.730;9.156;2022-12-29T04:35:50;2.20;;;2.00;;
8435;SDS011;4255;48.730;9.156;2022-12-29T04:38:19;2.25;;;2.13;;
8435;SDS011;4255;48.730;9.156;2022-12-29T04:40:45;2.20;;;2.10;;
8435;SDS011;4255;48.730;9.156;2022-12-29T04:43:11;8.30;;;2.00;;
8435;SDS011;4255;48.730;9.156;2022-12-29T04:45:38;6.47;;;2.13;;
8435;SDS011;4255;48.730;9.156;2022-12-29T04:48:04;3.67;;;2.63;;
8435;SDS011;4255;48.730;9.156;2022-12-29T04:50:30;2.30;;;2.10;;
8435;SDS011;4255;48.730;9.156;2022-12-29T04:52:55;2.83;;;1.90;;
8435;SDS011;4255;48.730;9.156;2022-12-29T04:55:21;3.37;;;2.37;;
8435;SDS011;4255;48.730;9.156;2022-12-29T04:57:47;2.40;;;2.30;;
8435;SDS011;4255;48.730;9.156;2022-12-29T05:00:12;3.30;;;2.37;;
8435;SDS011;4255;48.730;9.156;2022-12-29T05:02:38;2.40;;;2.20;;
8435;SDS011;4255;48.730;9.156;2022-12-29T05:05:05;2.88;;;2.55;;
8435;SDS011;4255;48.730;9.156;2022-12-29T05:07:31;3.25;;;2.40;;
8435;SDS011;4255;48.730;9.156;2022-12-29T05:09:58;2.13;;;2.00;;
8435;SDS011;4255;48.730;9.156;2022-12-29T05:12:24;2.47;;;2.28;;
8435;SDS011;4255;48.730;9.156;2022-12-29T05:14:50;2.27;;;2.17;;
8435;SDS011;4255;48.730;9.156;2022-12-29T05:17:15;3.37;;;2.20;;
8435;SDS011;4255;48.730;9.156;2022-12-29T05:19:41;4.33;;;2.40;;
8435;SDS011;4255;48.730;9.156;2022-12-29T05:22:07;2.50;;;2.40;;
8435;SDS011;4255;48.730;9.156;2022-12-29T05:24:32;6.70;;;2.40;;
8435;SDS011;4255;48.730;9.156;2022-12-29T05:26:58;2.13;;;2.03;;
8435;SDS011;4255;48.730;9.156;2022-12-29T05:29:23;2.40;;;2.20;;
8435;SDS011;4255;48.730;9.156;2022-12-29T05:31:49;3.03;;;2.60;;
8435;SDS011;4255;48.730;9.156;2022-12-29T05:34:14;3.83;;;2.97;;
8435;SDS011;4255;48.730;9.156;2022-12-29T05:36:40;2.67;;;2.47;;
8435;SDS011;4255;48.730;9.156;2022-12-29T05:39:06;3.43;;;3.13;;
8435;SDS011;4255;48.730;9.156;2022-12-29T05:41:33;7.03;;;4.30;;
8435;SDS011;4255;48.730;9.156;2022-12-29T05:43:59;5.23;;;3.67;;
8435;SDS011;4255;48.730;9.156;2022-12-29T05:46:25;3.92;;;3.63;;
8435;SDS011;4255;48.730;9.156;2022-12-29T05:48:51;5.20;;;3.73;;
8435;SDS011;4255;48.730;9.156;2022-12-29T05:51:17;5.23;;;3.40;;
8435;SDS011;4255;48.730;9.156;2022-12-29T05:53:42;3.33;;;2.30;;
8435;SDS011;4255;48.730;9.156;2022-12-29T05:56:08;2.87;;;2.67;;
8435;SDS011;4255;48.730;9.156;2022-12-29T05:58:33;2.50;;;2.30;;
8435;SDS011;4255;48.730;9.156;2022-12-29T06:00:59;2.60;;;2.50;;
8435;SDS011;4255;48.730;9.156;2022-12-29T06:03:25;1.70;;;1.60;;
8435;SDS011;4255;48.730;9.156;2022-12-29T06:05:51;3.08;;;1.80;;
8435;SDS011;4255;48.730;9.156;2022-12-29T06:08:16;5.13;;;2.80;;
8435;SDS011;4255;48.730;9.156;2022-12-29T06:10:42;2.40;;;2.30;;
8435;SDS011;4255;48.730;9.156;2022-12-29T06:13:08;2.20;;;2.00;;
8435;SDS011;4255;48.730;9.156;2022-12-29T06:15:34;2.80;;;2.33;;
8435;SDS011;4255;48.730;9.156;2022-12-29T06:18:00;2.38;;;2.17;;
8435;SDS011;4255;48.730;9.156;2022-12-29T06:20:26;2.43;;;2.23;;
8435;SDS011;4255;48.730;9.156;2022-12-29T06:22:51;3.10;;;2.40;;
8435;SDS011;4255;48.730;9.156;2022-12-29T06:25:17;2.37;;;2.17;;
8435;SDS011;4255;48.730;9.156;2022-12-29T06:27:43;2.77;;;2.20;;
8435;SDS011;4255;48.730;9.156;2022-12-29T06:30:09;2.77;;;2.57;;
8435;SDS011;4255;48.730;9.156;2022-12-29T06:32:35;3.78;;;3.08;;
8435;SDS011;4255;48.730;9.156;2022-12-29T06:35:01;2.93;;;2.43;;
8435;SDS011;4255;48.730;9.156;2022-12-29T06:37:28;3.55;;;2.30;;
8435;SDS011;4255;48.730;9.156;2022-12-29T06:39:53;5.13;;;2.53;;
8435;SDS011;4255;48.730;9.156;2022-12-29T06:42:19;2.10;;;2.00;;
8435;SDS011;4255;48.730;9.156;2022-12-29T06:44:45;2.50;;;2.30;;
8435;SDS011;4255;48.730;9.156;2022-12-29T06:47:11;2.47;;;1.90;;
8435;SDS011;4255;48.730;9.156;2022-12-29T06:49:36;2.55;;;2.35;;
8435;SDS011;4255;48.730;9.156;2022-12-29T06:52:02;4.23;;;2.30;;
8435;SDS011;4255;48.730;9.156;2022-12-29T06:54:29;2.67;;;2.03;;
8435;SDS011;4255;48.730;9.156;2022-12-29T06:56:55;1.88;;;1.77;;
8435;SDS011;4255;48.730;9.156;2022-12-29T06:59:21;2.60;;;2.40;;
8435;SDS011;4255;48.730;9.156;2022-12-29T07:01:47;3.43;;;2.30;;
8435;SDS011;4255;48.730;9.156;2022-12-29T07:04:13;3.07;;;2.10;;
8435;SDS011;4255;48.730;9.156;2022-12-29T07:06:38;4.93;;;3.80;;
8435;SDS011;4255;48.730;9.156;2022-12-29T07:09:05;2.70;;;2.30;;
8435;SDS011;4255;48.730;9.156;2022-12-29T07:11:31;3.20;;;2.35;;
8435;SDS011;4255;48.730;9.156;2022-12-29T07:13:58;2.58;;;2.38;;
8435;SDS011;4255;48.730;9.156;2022-12-29T07:16:24;4.00;;;2.10;;
8435;SDS011;4255;48.730;9.156;2022-12-29T07:18:50;3.37;;;2.20;;
8435;SDS011;4255;48.730;9.156;2022-12-29T07:21:16;2.10;;;2.00;;
8435;SDS011;4255;48.730;9.156;2022-12-29T07:23:42;3.50;;;2.60;;
8435;SDS011;4255;48.730;9.156;2022-12-29T07:26:08;10.10;;;2.97;;
8435;SDS011;4255;48.730;9.156;2022-12-29T07:28:37;4.68;;;2.83;;
8435;SDS011;4255;48.730;9.156;2022-12-29T07:31:07;4.30;;;4.00;;
8435;SDS011;4255;48.730;9.156;2022-12-29T07:33:42;2.87;;;2.23;;
8435;SDS011;4255;48.730;9.156;2022-12-29T07:36:08;3.17;;;2.73;;
8435;SDS011;4255;48.730;9.156;2022-12-29T07:38:34;2.23;;;2.00;;
8435;SDS011;4255;48.730;9.156;2022-12-29T07:41:00;4.83;;;2.03;;
8435;SDS011;4255;48.730;9.156;2022-12-29T07:43:25;5.70;;;3.93;;
8435;SDS011;4255;48.730;9.156;2022-12-29T07:45:51;3.83;;;2.63;;
8435;SDS011;4255;48.730;9.156;2022-12-29T07:48:17;2.33;;;2.10;;
8435;SDS011;4255;48.730;9.156;2022-12-29T07:50:42;3.40;;;2.93;;
8435;SDS011;4255;48.730;9.156;2022-12-29T07:53:08;3.73;;;3.43;;
8435;SDS011;4255;48.730;9.156;2022-12-29T07:55:34;6.47;;;3.30;;
8435;SDS011;4255;48.730;9.156;2022-12-29T07:57:59;3.80;;;3.03;;
8435;SDS011;4255;48.730;9.156;2022-12-29T08:00:25;3.30;;;3.00;;
8435;SDS011;4255;48.730;9.156;2022-12-29T08:02:51;3.90;;;2.90;;
8435;SDS011;4255;48.730;9.156;2022-12-29T08:05:16;5.27;;;2.90;;
8435;SDS011;4255;48.730;9.156;2022-12-29T08:07:45;4.10;;;2.57;;
8435;SDS011;4255;48.730;9.156;2022-12-29T08:10:11;7.05;;;3.15;;
8435;SDS011;4255;48.730;9.156;2022-12-29T08:12:38;4.40;;;3.42;;
8435;SDS011;4255;48.730;9.156;2022-12-29T08:15:05;2.58;;;2.38;;
8435;SDS011;4255;48.730;9.156;2022-12-29T08:17:33;2.35;;;2.15;;
8435;SDS011;4255;48.730;9.156;2022-12-29T08:19:59;7.93;;;3.30;;
8435;SDS011;4255;48.730;9.156;2022-12-29T08:22:24;3.23;;;2.70;;
8435;SDS011;4255;48.730;9.156;2022-12-29T08:24:50;2.80;;;2.60;;
8435;SDS011;4255;48.730;9.156;2022-12-29T08:27:16;3.10;;;2.33;;
8435;SDS011;4255;48.730;9.156;2022-12-29T08:29:42;2.27;;;2.17;;
8435;SDS011;4255;48.730;9.156;2022-12-29T08:32:08;3.30;;;2.27;;
8435;SDS011;4255;48.730;9.156;2022-12-29T08:34:34;2.43;;;2.23;;
8435;SDS011;4255;48.730;9.156;2022-12-29T08:36:59;3.93;;;2.73;;
8435;SDS011;4255;48.730;9.156;2022-12-29T08:39:25;3.83;;;2.33;;
8435;SDS011;4255;48.730;9.156;2022-12-29T08:41:50;2.70;;;1.70;;
8435;SDS011;4255;48.730;9.156;2022-12-29T08:44:16;2.57;;;2.37;;
8435;SDS011;4255;48.730;9.156;2022-12-29T08:46:42;2.10;;;2.00;;
8435;SDS011;4255;48.730;9.156;2022-12-29T08:49:07;3.07;;;2.10;;
8435;SDS011;4255;48.730;9.156;2022-12-29T08:51:33;2.30;;;2.10;;
8435;SDS011;4255;48.730;9.156;2022-12-29T08:53:59;2.20;;;2.10;;
8435;SDS011;4255;48.730;9.156;2022-12-29T08:56:25;9.38;;;2.22;;
8435;SDS011;4255;48.730;9.156;2022-12-29T08:58:51;2.85;;;2.00;;
8435;SDS011;4255;48.730;9.156;2022-12-29T09:01:17;2.70;;;2.33;;
8435;SDS011;4255;48.730;9.156;2022-12-29T09:03:43;2.80;;;2.40;;
8435;SDS011;4255;48.730;9.156;2022-12-29T09:06:09;2.13;;;1.83;;
8435;SDS011;4255;48.730;9.156;2022-12-29T09:08:35;2.73;;;2.53;;
8435;SDS011;4255;48.730;9.156;2022-12-29T09:11:34;2.00;;;1.90;;
8435;SDS011;4255;48.730;9.156;2022-12-29T09:13:52;1.90;;;1.80;;
8435;SDS011;4255;48.730;9.156;2022-12-29T09:16:20;2.50;;;2.10;;
8435;SDS011;4255;48.730;9.156;2022-12-29T09:18:47;2.67;;;2.47;;
8435;SDS011;4255;48.730;9.156;2022-12-29T09:21:12;2.13;;;2.03;;
8435;SDS011;4255;48.730;9.156;2022-12-29T09:23:38;2.83;;;2.00;;
8435;SDS011;4255;48.730;9.156;2022-12-29T09:26:04;2.50;;;2.30;;
8435;SDS011;4255;48.730;9.156;2022-12-29T09:28:30;4.80;;;2.20;;
8435;SDS011;4255;48.730;9.156;2022-12-29T09:30:56;2.90;;;2.07;;
8435;SDS011;4255;48.730;9.156;2022-12-29T09:33:22;2.43;;;2.33;;
8435;SDS011;4255;48.730;9.156;2022-12-29T09:35:58;8.53;;;2.83;;
8435;SDS011;4255;48.730;9.156;2022-12-29T09:38:24;2.90;;;2.37;;
8435;SDS011;4255;48.730;9.156;2022-12-29T09:40:51;3.00;;;2.80;;
8435;SDS011;4255;48.730;9.156;2022-12-29T09:45:55;3.60;;;2.40;;
8435;SDS011;4255;48.730;9.156;2022-12-29T09:48:26;6.23;;;2.60;;
8435;SDS011;4255;48.730;9.156;2022-12-29T09:50:57;5.63;;;2.92;;
8435;SDS011;4255;48.730;9.156;2022-12-29T09:53:27;3.73;;;2.40;;
8435;SDS011;4255;48.730;9.156;2022-12-29T09:55:57;2.40;;;2.20;;
8435;SDS011;4255;48.730;9.156;2022-12-29T10:01:09;4.10;;;2.60;;
8435;SDS011;4255;48.730;9.156;2022-12-29T10:03:47;4.27;;;2.70;;
8435;SDS011;4255;48.730;9.156;2022-12-29T10:14:32;5.60;;;2.57;;
8435;SDS011;4255;48.730;9.156;2022-12-29T10:24:55;5.70;;;3.00;;
8435;SDS011;4255;48.730;9.156;2022-12-29T10:27:27;6.10;;;2.40;;
8435;SDS011;4255;48.730;9.156;2022-12-29T10:29:57;2.93;;;2.73;;
8435;SDS011;4255;48.730;9.156;2022-12-29T10:35:12;2.77;;;2.23;;
8435;SDS011;4255;48.730;9.156;2022-12-29T10:40:38;5.37;;;2.63;;
8435;SDS011;4255;48.730;9.156;2022-12-29T10:43:43;6.20;;;2.17;;
8435;SDS011;4255;48.730;9.156;2022-12-29T10:46:12;2.40;;;2.20;;
8435;SDS011;4255;48.730;9.156;2022-12-29T10:48:43;2.20;;;2.10;;
8435;SDS011;4255;48.730;9.156;2022-12-29T10:51:11;2.30;;;2.10;;
8435;SDS011;4255;48.730;9.156;2022-12-29T10:53:59;2.30;;;2.20;;
8435;SDS011;4255;48.730;9.156;2022-12-29T10:56:40;2.50;;;1.90;;
8435;SDS011;4255;48.730;9.156;2022-12-29T10:59:15;2.67;;;2.47;;
8435;SDS011;4255;48.730;9.156;2022-12-29T11:07:29;4.80;;;3.67;;
8435;SDS011;4255;48.730;9.156;2022-12-29T11:09:55;3.20;;;2.70;;
8435;SDS011;4255;48.730;9.156;2022-12-29T11:13:02;2.67;;;2.47;;
8435;SDS011;4255;48.730;9.156;2022-12-29T11:15:51;2.23;;;2.03;;
8435;SDS011;4255;48.730;9.156;2022-12-29T11:18:26;2.27;;;2.07;;
8435;SDS011;4255;48.730;9.156;2022-12-29T11:20:57;2.70;;;2.50;;
8435;SDS011;4255;48.730;9.156;2022-12-29T11:23:30;2.50;;;2.30;;
8435;SDS011;4255;48.730;9.156;2022-12-29T11:26:15;2.40;;;2.20;;
8435;SDS011;4255;48.730;9.156;2022-12-29T11:28:45;2.50;;;2.30;;
8435;SDS011;4255;48.730;9.156;2022-12-29T11:31:16;2.60;;;2.40;;
8435;SDS011;4255;48.730;9.156;2022-12-29T11:33:43;8.40;;;2.60;;
8435;SDS011;4255;48.730;9.156;2022-12-29T11:36:13;4.20;;;2.60;;
8435;SDS011;4255;48.730;9.156;2022-12-29T11:38:49;3.23;;;2.80;;
8435;SDS011;4255;48.730;9.156;2022-12-29T11:41:20;2.53;;;2.30;;
8435;SDS011;4255;48.730;9.156;2022-12-29T11:43:51;4.87;;;3.10;;
8435;SDS011;4255;48.730;9.156;2022-12-29T11:46:23;2.30;;;2.20;;
8435;SDS011;4255;48.730;9.156;2022-12-29T11:48:54;2.73;;;2.37;;
8435;SDS011;4255;48.730;9.156;2022-12-29T11:51:24;4.00;;;2.67;;
8435;SDS011;4255;48.730;9.156;2022-12-29T11:54:00;4.43;;;3.10;;
8435;SDS011;4255;48.730;9.156;2022-12-29T11:56:32;3.03;;;2.80;;
8435;SDS011;4255;48.730;9.156;2022-12-29T12:02:48;2.17;;;2.00;;
8435;SDS011;4255;48.730;9.156;2022-12-29T12:08:17;2.73;;;2.50;;
8435;SDS011;4255;48.730;9.156;2022-12-29T12:10:46;1.97;;;1.87;;
8435;SDS011;4255;48.730;9.156;2022-12-29T12:13:22;1.80;;;1.70;;
8435;SDS011;4255;48.730;9.156;2022-12-29T12:15:59;1.90;;;1.80;;
8435;SDS011;4255;48.730;9.156;2022-12-29T12:21:06;2.20;;;2.00;;
8435;SDS011;4255;48.730;9.156;2022-12-29T12:23:43;3.20;;;2.97;;
8435;SDS011;4255;48.730;9.156;2022-12-29T12:26:30;2.80;;;2.00;;
8435;SDS011;4255;48.730;9.156;2022-12-29T12:29:16;2.43;;;2.23;;
8435;SDS011;4255;48.730;9.156;2022-12-29T12:32:01;2.10;;;2.00;;
8435;SDS011;4255;48.730;9.156;2022-12-29T12:34:49;2.30;;;2.10;;
8435;SDS011;4255;48.730;9.156;2022-12-29T12:43:11;2.60;;;2.40;;
8435;SDS011;4255;48.730;9.156;2022-12-29T12:45:55;2.43;;;2.33;;
8435;SDS011;4255;48.730;9.156;2022-12-29T12:51:03;2.73;;;2.50;;
8435;SDS011;4255;48.730;9.156;2022-12-29T13:01:38;3.83;;;2.50;;
8435;SDS011;4255;48.730;9.156;2022-12-29T13:07:43;3.03;;;2.50;;
8435;SDS011;4255;48.730;9.156;2022-12-29T13:10:30;4.07;;;2.57;;
8435;SDS011;4255;48.730;9.156;2022-12-29T13:20:49;2.43;;;2.30;;
8435;SDS011;4255;48.730;9.156;2022-12-29T13:26:24;3.20;;;3.00;;
8435;SDS011;4255;48.730;9.156;2022-12-29T13:32:12;2.80;;;2.30;;
8435;SDS011;4255;48.730;9.156;2022-12-29T13:34:21;2.80;;;2.60;;
8435;SDS011;4255;48.730;9.156;2022-12-29T13:36:58;2.67;;;2.30;;
8435;SDS011;4255;48.730;9.156;2022-12-29T13:39:37;2.67;;;2.47;;
8435;SDS011;4255;48.730;9.156;2022-12-29T13:42:10;3.60;;;2.40;;
8435;SDS011;4255;48.730;9.156;2022-12-29T13:44:39;6.93;;;2.70;;
8435;SDS011;4255;48.730;9.156;2022-12-29T13:47:33;2.23;;;2.13;;
8435;SDS011;4255;48.730;9.156;2022-12-29T13:50:05;4.00;;;3.70;;
8435;SDS011;4255;48.730;9.156;2022-12-29T13:52:49;2.80;;;2.60;;
8435;SDS011;4255;48.730;9.156;2022-12-29T13:57:54;2.80;;;2.60;;
8435;SDS011;4255;48.730;9.156;2022-12-29T14:05:44;3.00;;;2.80;;
8435;SDS011;4255;48.730;9.156;2022-12-29T14:08:14;2.80;;;2.60;;
8435;SDS011;4255;48.730;9.156;2022-12-29T14:10:48;3.43;;;2.90;;
8435;SDS011;4255;48.730;9.156;2022-12-29T14:13:16;5.37;;;2.93;;
8435;SDS011;4255;48.730;9.156;2022-12-29T14:15:49;2.80;;;2.37;;
8435;SDS011;4255;48.730;9.156;2022-12-29T14:18:17;4.07;;;3.67;;
8435;SDS011;4255;48.730;9.156;2022-12-29T14:20:53;4.63;;;3.03;;
8435;SDS011;4255;48.730;9.156;2022-12-29T14:28:56;4.10;;;3.07;;
8435;SDS011;4255;48.730;9.156;2022-12-29T14:32:00;2.83;;;2.60;;
8435;SDS011;4255;48.730;9.156;2022-12-29T14:34:29;2.80;;;2.60;;
8435;SDS011;4255;48.730;9.156;2022-12-29T14:37:02;3.27;;;2.97;;
8435;SDS011;4255;48.730;9.156;2022-12-29T14:39:32;4.70;;;3.20;;
8435;SDS011;4255;48.730;9.156;2022-12-29T14:47:27;2.83;;;2.63;;
8435;SDS011;4255;48.730;9.156;2022-12-29T14:49:56;3.80;;;3.10;;
8435;SDS011;4255;48.730;9.156;2022-12-29T14:52:45;3.17;;;2.87;;
8435;SDS011;4255;48.730;9.156;2022-12-29T14:55:30;3.40;;;2.70;;
8435;SDS011;4255;48.730;9.156;2022-12-29T15:00:45;4.63;;;3.10;;
8435;SDS011;4255;48.730;9.156;2022-12-29T15:05:44;3.70;;;3.40;;
8435;SDS011;4255;48.730;9.156;2022-12-29T15:08:19;2.73;;;2.57;;
8435;SDS011;4255;48.730;9.156;2022-12-29T15:10:52;3.53;;;2.30;;
8435;SDS011;4255;48.730;9.156;2022-12-29T15:13:34;3.03;;;2.83;;
8435;SDS011;4255;48.730;9.156;2022-12-29T15:16:01;2.70;;;2.50;;
8435;SDS011;4255;48.730;9.156;2022-12-29T15:18:30;3.00;;;2.80;;
8435;SDS011;4255;48.730;9.156;2022-12-29T15:21:02;2.55;;;2.40;;
8435;SDS011;4255;48.730;9.156;2022-12-29T15:23:30;4.32;;;2.60;;
8435;SDS011;4255;48.730;9.156;2022-12-29T15:25:59;4.07;;;3.20;;
8435;SDS011;4255;48.730;9.156;2022-12-29T15:28:41;3.08;;;2.88;;
8435;SDS011;4255;48.730;9.156;2022-12-29T15:31:13;3.85;;;2.80;;
8435;SDS011;4255;48.730;9.156;2022-12-29T15:33:48;2.60;;;2.40;;
8435;SDS011;4255;48.730;9.156;2022-12-29T15:36:23;3.80;;;2.97;;
8435;SDS011;4255;48.730;9.156;2022-12-29T15:38:51;2.90;;;2.43;;
8435;SDS011;4255;48.730;9.156;2022-12-29T15:44:21;5.45;;;4.18;;
8435;SDS011;4255;48.730;9.156;2022-12-29T15:46:50;3.10;;;2.80;;
8435;SDS011;4255;48.730;9.156;2022-12-29T15:49:17;5.50;;;3.17;;
8435;SDS011;4255;48.730;9.156;2022-12-29T15:51:43;3.65;;;3.35;;
8435;SDS011;4255;48.730;9.156;2022-12-29T15:54:14;4.53;;;4.10;;
8435;SDS011;4255;48.730;9.156;2022-12-29T15:56:42;5.20;;;3.20;;
8435;SDS011;4255;48.730;9.156;2022-12-29T15:59:28;4.40;;;2.80;;
8435;SDS011;4255;48.730;9.156;2022-12-29T16:01:58;3.13;;;2.83;;
8435;SDS011;4255;48.730;9.156;2022-12-29T16:04:26;6.00;;;3.50;;
8435;SDS011;4255;48.730;9.156;2022-12-29T16:06:55;3.77;;;3.10;;
8435;SDS011;4255;48.730;9.156;2022-12-29T16:09:32;4.45;;;2.40;;
8435;SDS011;4255;48.730;9.156;2022-12-29T16:11:59;2.20;;;2.00;;
8435;SDS011;4255;48.730;9.156;2022-12-29T16:17:06;2.47;;;2.00;;
8435;SDS011;4255;48.730;9.156;2022-12-29T16:19:36;1.98;;;1.88;;
8435;SDS011;4255;48.730;9.156;2022-12-29T16:22:09;2.97;;;1.90;;
8435;SDS011;4255;48.730;9.156;2022-12-29T16:24:37;2.25;;;2.00;;
8435;SDS011;4255;48.730;9.156;2022-12-29T16:29:30;2.20;;;2.10;;
8435;SDS011;4255;48.730;9.156;2022-12-29T16:31:57;2.30;;;1.90;;
8435;SDS011;4255;48.730;9.156;2022-12-29T16:34:32;2.15;;;1.77;;
8435;SDS011;4255;48.730;9.156;2022-12-29T16:47:43;2.58;;;2.38;;
8435;SDS011;4255;48.730;9.156;2022-12-29T16:50:29;2.72;;;2.45;;
8435;SDS011;4255;48.730;9.156;2022-12-29T16:52:55;2.43;;;2.23;;
8435;SDS011;4255;48.730;9.156;2022-12-29T16:55:20;2.40;;;2.20;;
8435;SDS011;4255;48.730;9.156;2022-12-29T16:57:46;2.10;;;2.00;;
8435;SDS011;4255;48.730;9.156;2022-12-29T17:00:21;2.70;;;2.50;;
8435;SDS011;4255;48.730;9.156;2022-12-29T17:02:52;3.25;;;2.95;;
8435;SDS011;4255;48.730;9.156;2022-12-29T17:05:23;3.40;;;2.53;;
8435;SDS011;4255;48.730;9.156;2022-12-29T17:07:49;4.72;;;3.35;;
8435;SDS011;4255;48.730;9.156;2022-12-29T17:10:16;5.00;;;4.25;;
8435;SDS011;4255;48.730;9.156;2022-12-29T17:12:42;7.60;;;4.90;;
8435;SDS011;4255;48.730;9.156;2022-12-29T17:15:19;4.05;;;3.67;;
8435;SDS011;4255;48.730;9.156;2022-12-29T17:17:49;4.28;;;3.90;;
8435;SDS011;4255;48.730;9.156;2022-12-29T17:20:20;4.93;;;3.00;;
8435;SDS011;4255;48.730;9.156;2022-12-29T17:22:47;3.40;;;2.17;;
8435;SDS011;4255;48.730;9.156;2022-12-29T17:25:19;2.40;;;2.20;;
8435;SDS011;4255;48.730;9.156;2022-12-29T17:27:47;2.45;;;2.20;;
8435;SDS011;4255;48.730;9.156;2022-12-29T17:30:15;2.47;;;2.38;;
8435;SDS011;4255;48.730;9.156;2022-12-29T17:32:45;6.47;;;2.42;;
8435;SDS011;4255;48.730;9.156;2022-12-29T17:35:29;3.25;;;2.38;;
8435;SDS011;4255;48.730;9.156;2022-12-29T17:37:54;3.20;;;2.90;;
8435;SDS011;4255;48.730;9.156;2022-12-29T17:40:21;7.80;;;3.60;;
8435;SDS011;4255;48.730;9.156;2022-12-29T17:42:54;3.25;;;2.90;;
8435;SDS011;4255;48.730;9.156;2022-12-29T17:45:28;2.95;;;2.13;;
8435;SDS011;4255;48.730;9.156;2022-12-29T17:47:55;5.03;;;3.13;;
8435;SDS011;4255;48.730;9.156;2022-12-29T17:50:25;4.22;;;3.92;;
8435;SDS011;4255;48.730;9.156;2022-12-29T17:53:03;6.22;;;3.70;;
8435;SDS011;4255;48.730;9.156;2022-12-29T17:55:31;7.90;;;5.65;;
8435;SDS011;4255;48.730;9.156;2022-12-29T17:57:57;11.30;;;8.43;;
8435;SDS011;4255;48.730;9.156;2022-12-29T18:00:23;10.27;;;6.67;;
8435;SDS011;4255;48.730;9.156;2022-12-29T18:02:55;9.90;;;7.65;;
8435;SDS011;4255;48.730;9.156;2022-12-29T18:05:29;14.07;;;12.32;;